sensor_id;sensor_type;location;lat;lon;timestamp;P1;durP1;ratioP1;P2;durP2;ratioP2
11398;SDS011;5755;48.116;11.608;2023-11-21T00:00:49;7.65;;;3.85;;
11398;SDS011;5755;48.116;11.608;2023-11-21T00:03:16;4.95;;;2.35;;
11398;SDS011;5755;48.116;11.608;2023-11-21T00:05:44;5.63;;;2.90;;
11398;SDS011;5755;48.116;11.608;2023-11-21T00:08:11;4.15;;;1.67;;
11398;SDS011;5755;48.116;11.608;2023-11-21T00:10:38;6.93;;;1.90;;
11398;SDS011;5755;48.116;11.608;2023-11-21T00:13:06;7.38;;;1.98;;
11398;SDS011;5755;48.116;11.608;2023-11-21T00:15:33;6.47;;;2.88;;
11398;SDS011;5755;48.116;11.608;2023-11-21T00:18:00;8.95;;;2.40;;
11398;SDS011;5755;48.116;11.608;2023-11-21T00:20:27;8.27;;;2.80;;
11398;SDS011;5755;48.116;11.608;2023-11-21T00:22:53;7.20;;;3.85;;
11398;SDS011;5755;48.116;11.608;2023-11-21T00:25:20;7.32;;;2.33;;
11398;SDS011;5755;48.116;11.608;2023-11-21T00:27:47;8.32;;;2.95;;
11398;SDS011;5755;48.116;11.608;2023-11-21T00:30:16;9.55;;;3.13;;
11398;SDS011;5755;48.116;11.608;2023-11-21T00:32:57;6.85;;;2.03;;
11398;SDS011;5755;48.116;11.608;2023-11-21T00:35:24;2.95;;;1.55;;
11398;SDS011;5755;48.116;11.608;2023-11-21T00:37:52;7.15;;;2.15;;
11398;SDS011;5755;48.116;11.608;2023-11-21T00:40:46;9.25;;;3.72;;
11398;SDS011;5755;48.116;11.608;2023-11-21T00:43:12;14.13;;;6.78;;
11398;SDS011;5755;48.116;11.608;2023-11-21T00:45:41;5.63;;;2.00;;
11398;SDS011;5755;48.116;11.608;2023-11-21T00:48:22;4.43;;;1.50;;
11398;SDS011;5755;48.116;11.608;2023-11-21T00:50:49;11.73;;;3.78;;
11398;SDS011;5755;48.116;11.608;2023-11-21T00:53:16;21.85;;;14.20;;
11398;SDS011;5755;48.116;11.608;2023-11-21T00:55:43;10.10;;;5.30;;
11398;SDS011;5755;48.116;11.608;2023-11-21T00:58:12;8.90;;;3.70;;
11398;SDS011;5755;48.116;11.608;2023-11-21T01:00:40;4.30;;;2.20;;
11398;SDS011;5755;48.116;11.608;2023-11-21T01:03:22;7.28;;;3.45;;
11398;SDS011;5755;48.116;11.608;2023-11-21T01:06:11;12.07;;;5.22;;
11398;SDS011;5755;48.116;11.608;2023-11-21T01:08:38;7.47;;;1.60;;
11398;SDS011;5755;48.116;11.608;2023-11-21T01:11:05;4.28;;;1.50;;
11398;SDS011;5755;48.116;11.608;2023-11-21T01:13:33;4.80;;;1.52;;
11398;SDS011;5755;48.116;11.608;2023-11-21T01:16:02;6.93;;;2.80;;
11398;SDS011;5755;48.116;11.608;2023-11-21T01:18:51;6.15;;;1.85;;
11398;SDS011;5755;48.116;11.608;2023-11-21T01:21:18;6.22;;;1.88;;
11398;SDS011;5755;48.116;11.608;2023-11-21T01:23:48;5.60;;;1.70;;
11398;SDS011;5755;48.116;11.608;2023-11-21T01:26:14;7.20;;;1.75;;
11398;SDS011;5755;48.116;11.608;2023-11-21T01:28:41;4.50;;;1.63;;
11398;SDS011;5755;48.116;11.608;2023-11-21T01:31:10;5.50;;;1.83;;
11398;SDS011;5755;48.116;11.608;2023-11-21T01:33:58;5.45;;;2.50;;
11398;SDS011;5755;48.116;11.608;2023-11-21T01:36:29;11.13;;;3.83;;
11398;SDS011;5755;48.116;11.608;2023-11-21T01:38:56;7.18;;;3.58;;
11398;SDS011;5755;48.116;11.608;2023-11-21T01:41:24;4.72;;;1.70;;
11398;SDS011;5755;48.116;11.608;2023-11-21T01:43:52;7.68;;;2.17;;
11398;SDS011;5755;48.116;11.608;2023-11-21T01:46:21;7.00;;;1.67;;
11398;SDS011;5755;48.116;11.608;2023-11-21T01:49:02;3.92;;;1.67;;
11398;SDS011;5755;48.116;11.608;2023-11-21T01:51:30;4.47;;;1.65;;
11398;SDS011;5755;48.116;11.608;2023-11-21T01:53:58;4.28;;;1.77;;
11398;SDS011;5755;48.116;11.608;2023-11-21T01:56:25;4.70;;;1.80;;
11398;SDS011;5755;48.116;11.608;2023-11-21T01:59:05;7.20;;;2.25;;
11398;SDS011;5755;48.116;11.608;2023-11-21T02:01:34;9.30;;;4.00;;
11398;SDS011;5755;48.116;11.608;2023-11-21T02:04:01;6.68;;;2.80;;
11398;SDS011;5755;48.116;11.608;2023-11-21T02:06:28;5.18;;;1.77;;
11398;SDS011;5755;48.116;11.608;2023-11-21T02:08:56;4.43;;;1.70;;
11398;SDS011;5755;48.116;11.608;2023-11-21T02:11:24;6.13;;;1.75;;
11398;SDS011;5755;48.116;11.608;2023-11-21T02:13:52;5.30;;;2.00;;
11398;SDS011;5755;48.116;11.608;2023-11-21T02:16:20;9.05;;;2.17;;
11398;SDS011;5755;48.116;11.608;2023-11-21T02:18:48;6.75;;;1.85;;
11398;SDS011;5755;48.116;11.608;2023-11-21T02:21:52;4.15;;;1.80;;
11398;SDS011;5755;48.116;11.608;2023-11-21T02:24:21;6.75;;;1.90;;
11398;SDS011;5755;48.116;11.608;2023-11-21T02:26:49;7.45;;;2.00;;
11398;SDS011;5755;48.116;11.608;2023-11-21T02:29:25;6.68;;;2.00;;
11398;SDS011;5755;48.116;11.608;2023-11-21T02:31:53;6.30;;;2.05;;
11398;SDS011;5755;48.116;11.608;2023-11-21T02:34:21;5.45;;;1.80;;
11398;SDS011;5755;48.116;11.608;2023-11-21T02:36:49;9.35;;;2.13;;
11398;SDS011;5755;48.116;11.608;2023-11-21T02:39:17;5.57;;;1.80;;
11398;SDS011;5755;48.116;11.608;2023-11-21T02:41:48;6.72;;;1.65;;
11398;SDS011;5755;48.116;11.608;2023-11-21T02:44:15;5.30;;;2.13;;
11398;SDS011;5755;48.116;11.608;2023-11-21T02:46:42;4.85;;;1.80;;
11398;SDS011;5755;48.116;11.608;2023-11-21T02:49:09;4.68;;;1.75;;
11398;SDS011;5755;48.116;11.608;2023-11-21T02:51:37;3.88;;;1.10;;
11398;SDS011;5755;48.116;11.608;2023-11-21T02:54:04;5.65;;;1.63;;
11398;SDS011;5755;48.116;11.608;2023-11-21T02:56:33;6.00;;;1.88;;
11398;SDS011;5755;48.116;11.608;2023-11-21T02:59:01;3.05;;;1.67;;
11398;SDS011;5755;48.116;11.608;2023-11-21T03:01:42;5.82;;;2.35;;
11398;SDS011;5755;48.116;11.608;2023-11-21T03:04:09;6.72;;;1.92;;
11398;SDS011;5755;48.116;11.608;2023-11-21T03:06:36;3.42;;;1.80;;
11398;SDS011;5755;48.116;11.608;2023-11-21T03:09:03;3.13;;;1.70;;
11398;SDS011;5755;48.116;11.608;2023-11-21T03:11:31;5.13;;;1.80;;
11398;SDS011;5755;48.116;11.608;2023-11-21T03:14:02;3.78;;;1.60;;
11398;SDS011;5755;48.116;11.608;2023-11-21T03:16:29;5.72;;;1.50;;
11398;SDS011;5755;48.116;11.608;2023-11-21T03:18:56;5.63;;;1.70;;
11398;SDS011;5755;48.116;11.608;2023-11-21T03:21:23;6.65;;;1.80;;
11398;SDS011;5755;48.116;11.608;2023-11-21T03:23:51;6.70;;;1.85;;
11398;SDS011;5755;48.116;11.608;2023-11-21T03:26:18;6.13;;;1.70;;
11398;SDS011;5755;48.116;11.608;2023-11-21T03:28:45;5.93;;;2.03;;
11398;SDS011;5755;48.116;11.608;2023-11-21T03:31:13;7.20;;;1.75;;
11398;SDS011;5755;48.116;11.608;2023-11-21T03:33:48;4.80;;;1.70;;
11398;SDS011;5755;48.116;11.608;2023-11-21T03:36:15;4.30;;;1.48;;
11398;SDS011;5755;48.116;11.608;2023-11-21T03:38:43;3.15;;;1.25;;
11398;SDS011;5755;48.116;11.608;2023-11-21T03:41:10;4.57;;;1.50;;
11398;SDS011;5755;48.116;11.608;2023-11-21T03:43:37;4.93;;;1.80;;
11398;SDS011;5755;48.116;11.608;2023-11-21T03:46:19;4.53;;;1.58;;
11398;SDS011;5755;48.116;11.608;2023-11-21T03:49:08;2.90;;;1.77;;
11398;SDS011;5755;48.116;11.608;2023-11-21T03:51:35;2.80;;;1.42;;
11398;SDS011;5755;48.116;11.608;2023-11-21T03:54:02;6.63;;;2.30;;
11398;SDS011;5755;48.116;11.608;2023-11-21T03:56:30;4.28;;;1.35;;
11398;SDS011;5755;48.116;11.608;2023-11-21T03:58:57;4.47;;;1.45;;
11398;SDS011;5755;48.116;11.608;2023-11-21T04:01:25;3.78;;;1.10;;
11398;SDS011;5755;48.116;11.608;2023-11-21T04:04:06;4.53;;;1.40;;
11398;SDS011;5755;48.116;11.608;2023-11-21T04:06:33;2.72;;;1.20;;
11398;SDS011;5755;48.116;11.608;2023-11-21T04:09:01;3.75;;;1.60;;
11398;SDS011;5755;48.116;11.608;2023-11-21T04:11:41;4.70;;;1.30;;
11398;SDS011;5755;48.116;11.608;2023-11-21T04:14:10;2.60;;;1.10;;
11398;SDS011;5755;48.116;11.608;2023-11-21T04:16:38;3.10;;;1.30;;
11398;SDS011;5755;48.116;11.608;2023-11-21T04:19:20;4.38;;;1.33;;
11398;SDS011;5755;48.116;11.608;2023-11-21T04:21:47;2.72;;;1.20;;
11398;SDS011;5755;48.116;11.608;2023-11-21T04:24:15;3.05;;;1.60;;
11398;SDS011;5755;48.116;11.608;2023-11-21T04:26:43;4.03;;;1.40;;
11398;SDS011;5755;48.116;11.608;2023-11-21T04:29:10;2.95;;;1.40;;
11398;SDS011;5755;48.116;11.608;2023-11-21T04:31:38;3.80;;;1.50;;
11398;SDS011;5755;48.116;11.608;2023-11-21T04:34:19;2.53;;;1.27;;
11398;SDS011;5755;48.116;11.608;2023-11-21T04:36:46;3.10;;;1.00;;
11398;SDS011;5755;48.116;11.608;2023-11-21T04:39:13;4.15;;;1.40;;
11398;SDS011;5755;48.116;11.608;2023-11-21T04:41:40;6.13;;;1.42;;
11398;SDS011;5755;48.116;11.608;2023-11-21T04:44:07;2.75;;;1.10;;
11398;SDS011;5755;48.116;11.608;2023-11-21T04:46:35;3.40;;;1.20;;
11398;SDS011;5755;48.116;11.608;2023-11-21T04:49:03;3.85;;;1.60;;
11398;SDS011;5755;48.116;11.608;2023-11-21T04:51:30;2.33;;;1.08;;
11398;SDS011;5755;48.116;11.608;2023-11-21T04:53:57;1.73;;;1.20;;
11398;SDS011;5755;48.116;11.608;2023-11-21T04:56:24;3.20;;;1.10;;
11398;SDS011;5755;48.116;11.608;2023-11-21T04:58:51;3.00;;;1.10;;
11398;SDS011;5755;48.116;11.608;2023-11-21T05:01:19;1.60;;;0.85;;
11398;SDS011;5755;48.116;11.608;2023-11-21T05:03:46;2.67;;;1.05;;
11398;SDS011;5755;48.116;11.608;2023-11-21T05:06:15;2.28;;;1.10;;
11398;SDS011;5755;48.116;11.608;2023-11-21T05:08:45;4.75;;;1.17;;
11398;SDS011;5755;48.116;11.608;2023-11-21T05:11:12;3.78;;;1.45;;
11398;SDS011;5755;48.116;11.608;2023-11-21T05:13:50;2.42;;;1.10;;
11398;SDS011;5755;48.116;11.608;2023-11-21T05:16:16;2.22;;;1.20;;
11398;SDS011;5755;48.116;11.608;2023-11-21T05:18:44;1.92;;;1.30;;
11398;SDS011;5755;48.116;11.608;2023-11-21T05:21:10;2.05;;;1.20;;
11398;SDS011;5755;48.116;11.608;2023-11-21T05:23:39;2.53;;;1.35;;
11398;SDS011;5755;48.116;11.608;2023-11-21T05:26:20;4.95;;;1.58;;
11398;SDS011;5755;48.116;11.608;2023-11-21T05:28:47;2.90;;;1.40;;
11398;SDS011;5755;48.116;11.608;2023-11-21T05:31:14;3.25;;;1.10;;
11398;SDS011;5755;48.116;11.608;2023-11-21T05:33:41;4.22;;;1.30;;
11398;SDS011;5755;48.116;11.608;2023-11-21T05:36:08;1.65;;;1.25;;
11398;SDS011;5755;48.116;11.608;2023-11-21T05:38:36;5.38;;;1.27;;
11398;SDS011;5755;48.116;11.608;2023-11-21T05:41:18;2.88;;;1.50;;
11398;SDS011;5755;48.116;11.608;2023-11-21T05:43:45;2.60;;;1.30;;
11398;SDS011;5755;48.116;11.608;2023-11-21T05:46:12;2.20;;;1.27;;
11398;SDS011;5755;48.116;11.608;2023-11-21T05:48:39;2.38;;;1.00;;
11398;SDS011;5755;48.116;11.608;2023-11-21T05:51:07;2.17;;;1.33;;
11398;SDS011;5755;48.116;11.608;2023-11-21T05:53:34;5.35;;;1.20;;
11398;SDS011;5755;48.116;11.608;2023-11-21T05:56:01;3.10;;;1.48;;
11398;SDS011;5755;48.116;11.608;2023-11-21T05:58:30;3.22;;;1.02;;
11398;SDS011;5755;48.116;11.608;2023-11-21T06:00:57;3.92;;;1.40;;
11398;SDS011;5755;48.116;11.608;2023-11-21T06:03:26;2.55;;;1.30;;
11398;SDS011;5755;48.116;11.608;2023-11-21T06:05:53;4.07;;;1.55;;
11398;SDS011;5755;48.116;11.608;2023-11-21T06:08:20;3.65;;;1.80;;
11398;SDS011;5755;48.116;11.608;2023-11-21T06:10:47;3.55;;;1.52;;
11398;SDS011;5755;48.116;11.608;2023-11-21T06:13:14;3.35;;;1.38;;
11398;SDS011;5755;48.116;11.608;2023-11-21T06:15:44;4.40;;;1.40;;
11398;SDS011;5755;48.116;11.608;2023-11-21T06:18:26;3.88;;;1.20;;
11398;SDS011;5755;48.116;11.608;2023-11-21T06:21:19;3.72;;;1.13;;
11398;SDS011;5755;48.116;11.608;2023-11-21T06:23:46;4.57;;;1.23;;
11398;SDS011;5755;48.116;11.608;2023-11-21T06:26:13;2.90;;;1.23;;
11398;SDS011;5755;48.116;11.608;2023-11-21T06:28:40;2.60;;;1.35;;
11398;SDS011;5755;48.116;11.608;2023-11-21T06:31:08;2.70;;;1.15;;
11398;SDS011;5755;48.116;11.608;2023-11-21T06:33:35;3.90;;;1.35;;
11398;SDS011;5755;48.116;11.608;2023-11-21T06:36:05;2.97;;;1.20;;
11398;SDS011;5755;48.116;11.608;2023-11-21T06:38:32;3.03;;;1.20;;
11398;SDS011;5755;48.116;11.608;2023-11-21T06:40:59;5.20;;;1.35;;
11398;SDS011;5755;48.116;11.608;2023-11-21T06:43:27;3.88;;;1.17;;
11398;SDS011;5755;48.116;11.608;2023-11-21T06:45:56;4.00;;;1.13;;
11398;SDS011;5755;48.116;11.608;2023-11-21T06:48:24;1.63;;;1.20;;
11398;SDS011;5755;48.116;11.608;2023-11-21T06:50:52;2.15;;;1.25;;
11398;SDS011;5755;48.116;11.608;2023-11-21T06:53:18;1.85;;;0.90;;
11398;SDS011;5755;48.116;11.608;2023-11-21T06:55:45;2.30;;;1.30;;
11398;SDS011;5755;48.116;11.608;2023-11-21T06:58:12;2.60;;;1.23;;
11398;SDS011;5755;48.116;11.608;2023-11-21T07:00:40;1.85;;;1.05;;
11398;SDS011;5755;48.116;11.608;2023-11-21T07:03:11;3.97;;;1.42;;
11398;SDS011;5755;48.116;11.608;2023-11-21T07:05:40;3.03;;;1.30;;
11398;SDS011;5755;48.116;11.608;2023-11-21T07:08:06;2.72;;;1.30;;
11398;SDS011;5755;48.116;11.608;2023-11-21T07:10:33;2.10;;;1.25;;
11398;SDS011;5755;48.116;11.608;2023-11-21T07:13:15;2.53;;;1.20;;
11398;SDS011;5755;48.116;11.608;2023-11-21T07:15:42;4.03;;;1.23;;
11398;SDS011;5755;48.116;11.608;2023-11-21T07:18:09;6.90;;;1.20;;
11398;SDS011;5755;48.116;11.608;2023-11-21T07:20:36;2.60;;;1.20;;
11398;SDS011;5755;48.116;11.608;2023-11-21T07:23:05;2.20;;;1.30;;
11398;SDS011;5755;48.116;11.608;2023-11-21T07:25:32;2.92;;;1.35;;
11398;SDS011;5755;48.116;11.608;2023-11-21T07:27:59;3.38;;;1.25;;
11398;SDS011;5755;48.116;11.608;2023-11-21T07:30:26;3.38;;;1.15;;
11398;SDS011;5755;48.116;11.608;2023-11-21T07:32:53;2.20;;;1.05;;
11398;SDS011;5755;48.116;11.608;2023-11-21T07:35:20;4.72;;;1.30;;
11398;SDS011;5755;48.116;11.608;2023-11-21T07:37:47;2.45;;;0.95;;
11398;SDS011;5755;48.116;11.608;2023-11-21T07:40:18;2.20;;;1.20;;
11398;SDS011;5755;48.116;11.608;2023-11-21T07:43:15;1.73;;;1.00;;
11398;SDS011;5755;48.116;11.608;2023-11-21T07:45:44;3.70;;;1.27;;
11398;SDS011;5755;48.116;11.608;2023-11-21T07:48:11;1.52;;;1.10;;
11398;SDS011;5755;48.116;11.608;2023-11-21T07:50:38;2.88;;;1.25;;
11398;SDS011;5755;48.116;11.608;2023-11-21T07:53:05;2.25;;;1.35;;
11398;SDS011;5755;48.116;11.608;2023-11-21T07:55:33;2.38;;;1.00;;
11398;SDS011;5755;48.116;11.608;2023-11-21T07:58:20;3.00;;;1.10;;
11398;SDS011;5755;48.116;11.608;2023-11-21T08:00:47;2.72;;;1.10;;
11398;SDS011;5755;48.116;11.608;2023-11-21T08:03:15;2.53;;;1.00;;
11398;SDS011;5755;48.116;11.608;2023-11-21T08:05:42;2.10;;;1.20;;
11398;SDS011;5755;48.116;11.608;2023-11-21T08:08:09;2.97;;;1.30;;
11398;SDS011;5755;48.116;11.608;2023-11-21T08:10:38;1.67;;;1.00;;
11398;SDS011;5755;48.116;11.608;2023-11-21T08:13:22;6.63;;;1.45;;
11398;SDS011;5755;48.116;11.608;2023-11-21T08:15:49;2.08;;;1.10;;
11398;SDS011;5755;48.116;11.608;2023-11-21T08:18:21;7.75;;;1.40;;
11398;SDS011;5755;48.116;11.608;2023-11-21T08:20:48;1.98;;;0.95;;
11398;SDS011;5755;48.116;11.608;2023-11-21T08:23:15;2.00;;;1.08;;
11398;SDS011;5755;48.116;11.608;2023-11-21T08:25:44;1.13;;;1.02;;
11398;SDS011;5755;48.116;11.608;2023-11-21T08:28:11;1.77;;;0.73;;
11398;SDS011;5755;48.116;11.608;2023-11-21T08:30:42;1.38;;;1.08;;
11398;SDS011;5755;48.116;11.608;2023-11-21T08:33:09;1.42;;;1.17;;
11398;SDS011;5755;48.116;11.608;2023-11-21T08:35:38;3.40;;;1.30;;
11398;SDS011;5755;48.116;11.608;2023-11-21T08:38:07;2.90;;;1.20;;
11398;SDS011;5755;48.116;11.608;2023-11-21T08:40:35;2.00;;;1.00;;
11398;SDS011;5755;48.116;11.608;2023-11-21T08:43:03;2.22;;;1.10;;
11398;SDS011;5755;48.116;11.608;2023-11-21T08:45:44;1.70;;;1.00;;
11398;SDS011;5755;48.116;11.608;2023-11-21T08:48:11;2.08;;;0.95;;
11398;SDS011;5755;48.116;11.608;2023-11-21T08:50:38;2.38;;;1.00;;
11398;SDS011;5755;48.116;11.608;2023-11-21T08:53:04;2.45;;;1.23;;
11398;SDS011;5755;48.116;11.608;2023-11-21T08:55:31;1.65;;;1.02;;
11398;SDS011;5755;48.116;11.608;2023-11-21T08:58:14;2.72;;;1.20;;
11398;SDS011;5755;48.116;11.608;2023-11-21T09:00:42;2.10;;;1.38;;
11398;SDS011;5755;48.116;11.608;2023-11-21T09:03:11;4.70;;;1.20;;
11398;SDS011;5755;48.116;11.608;2023-11-21T09:05:38;2.75;;;1.40;;
11398;SDS011;5755;48.116;11.608;2023-11-21T09:08:05;3.17;;;1.33;;
11398;SDS011;5755;48.116;11.608;2023-11-21T09:10:52;3.58;;;1.25;;
11398;SDS011;5755;48.116;11.608;2023-11-21T09:13:46;4.40;;;1.17;;
11398;SDS011;5755;48.116;11.608;2023-11-21T09:17:11;5.38;;;1.60;;
11398;SDS011;5755;48.116;11.608;2023-11-21T09:19:53;3.38;;;1.30;;
11398;SDS011;5755;48.116;11.608;2023-11-21T09:22:35;3.25;;;1.40;;
11398;SDS011;5755;48.116;11.608;2023-11-21T09:25:23;1.73;;;1.20;;
11398;SDS011;5755;48.116;11.608;2023-11-21T09:28:09;2.20;;;1.05;;
11398;SDS011;5755;48.116;11.608;2023-11-21T09:31:13;5.95;;;1.30;;
11398;SDS011;5755;48.116;11.608;2023-11-21T09:33:55;3.42;;;1.20;;
11398;SDS011;5755;48.116;11.608;2023-11-21T09:36:23;5.00;;;1.30;;
11398;SDS011;5755;48.116;11.608;2023-11-21T09:39:07;2.78;;;1.25;;
11398;SDS011;5755;48.116;11.608;2023-11-21T09:41:36;1.58;;;1.00;;
11398;SDS011;5755;48.116;11.608;2023-11-21T09:44:25;1.48;;;1.30;;
11398;SDS011;5755;48.116;11.608;2023-11-21T09:47:16;2.85;;;1.38;;
11398;SDS011;5755;48.116;11.608;2023-11-21T09:49:57;3.20;;;1.42;;
11398;SDS011;5755;48.116;11.608;2023-11-21T09:52:28;2.15;;;1.40;;
11398;SDS011;5755;48.116;11.608;2023-11-21T09:54:57;1.83;;;1.10;;
11398;SDS011;5755;48.116;11.608;2023-11-21T09:57:25;2.30;;;1.40;;
11398;SDS011;5755;48.116;11.608;2023-11-21T09:59:54;2.47;;;1.27;;
11398;SDS011;5755;48.116;11.608;2023-11-21T10:02:43;2.42;;;1.00;;
11398;SDS011;5755;48.116;11.608;2023-11-21T10:05:30;2.28;;;1.17;;
11398;SDS011;5755;48.116;11.608;2023-11-21T10:08:17;3.92;;;1.35;;
11398;SDS011;5755;48.116;11.608;2023-11-21T10:10:46;3.22;;;1.48;;
11398;SDS011;5755;48.116;11.608;2023-11-21T10:13:38;2.67;;;1.20;;
11398;SDS011;5755;48.116;11.608;2023-11-21T10:16:06;4.38;;;1.52;;
11398;SDS011;5755;48.116;11.608;2023-11-21T10:18:57;2.95;;;2.38;;
11398;SDS011;5755;48.116;11.608;2023-11-21T10:21:24;9.90;;;8.07;;
11398;SDS011;5755;48.116;11.608;2023-11-21T10:23:53;2.55;;;1.48;;
11398;SDS011;5755;48.116;11.608;2023-11-21T10:26:36;7.78;;;5.55;;
11398;SDS011;5755;48.116;11.608;2023-11-21T10:29:04;5.63;;;2.63;;
11398;SDS011;5755;48.116;11.608;2023-11-21T10:31:31;6.07;;;3.60;;
11398;SDS011;5755;48.116;11.608;2023-11-21T10:34:13;5.15;;;1.35;;
11398;SDS011;5755;48.116;11.608;2023-11-21T10:37:16;7.03;;;4.95;;
11398;SDS011;5755;48.116;11.608;2023-11-21T10:39:45;2.53;;;1.20;;
11398;SDS011;5755;48.116;11.608;2023-11-21T10:42:12;8.50;;;6.07;;
11398;SDS011;5755;48.116;11.608;2023-11-21T10:44:41;3.33;;;1.65;;
11398;SDS011;5755;48.116;11.608;2023-11-21T10:47:29;8.93;;;6.72;;
11398;SDS011;5755;48.116;11.608;2023-11-21T10:50:02;5.78;;;4.30;;
11398;SDS011;5755;48.116;11.608;2023-11-21T10:53:09;5.53;;;3.75;;
11398;SDS011;5755;48.116;11.608;2023-11-21T10:56:00;3.58;;;1.42;;
11398;SDS011;5755;48.116;11.608;2023-11-21T10:58:42;5.75;;;4.53;;
11398;SDS011;5755;48.116;11.608;2023-11-21T11:01:57;4.20;;;2.72;;
11398;SDS011;5755;48.116;11.608;2023-11-21T11:04:40;3.78;;;2.22;;
11398;SDS011;5755;48.116;11.608;2023-11-21T11:07:29;4.93;;;1.40;;
11398;SDS011;5755;48.116;11.608;2023-11-21T11:10:14;4.30;;;1.70;;
11398;SDS011;5755;48.116;11.608;2023-11-21T11:12:43;1.83;;;1.33;;
11398;SDS011;5755;48.116;11.608;2023-11-21T11:15:35;2.80;;;1.20;;
11398;SDS011;5755;48.116;11.608;2023-11-21T11:18:23;2.42;;;1.25;;
11398;SDS011;5755;48.116;11.608;2023-11-21T11:20:50;1.90;;;1.48;;
11398;SDS011;5755;48.116;11.608;2023-11-21T11:23:28;2.88;;;1.40;;
11398;SDS011;5755;48.116;11.608;2023-11-21T11:26:27;2.25;;;1.40;;
11398;SDS011;5755;48.116;11.608;2023-11-21T11:29:23;4.47;;;2.38;;
11398;SDS011;5755;48.116;11.608;2023-11-21T11:32:10;2.13;;;1.58;;
11398;SDS011;5755;48.116;11.608;2023-11-21T11:34:48;3.13;;;1.30;;
11398;SDS011;5755;48.116;11.608;2023-11-21T11:37:23;3.47;;;1.40;;
11398;SDS011;5755;48.116;11.608;2023-11-21T11:40:08;2.13;;;1.30;;
11398;SDS011;5755;48.116;11.608;2023-11-21T11:43:07;2.05;;;1.33;;
11398;SDS011;5755;48.116;11.608;2023-11-21T11:45:55;3.00;;;1.40;;
11398;SDS011;5755;48.116;11.608;2023-11-21T11:49:04;2.42;;;1.00;;
11398;SDS011;5755;48.116;11.608;2023-11-21T11:51:45;3.15;;;1.40;;
11398;SDS011;5755;48.116;11.608;2023-11-21T11:54:15;1.80;;;1.30;;
11398;SDS011;5755;48.116;11.608;2023-11-21T11:57:22;2.55;;;1.10;;
11398;SDS011;5755;48.116;11.608;2023-11-21T12:00:33;1.77;;;1.05;;
11398;SDS011;5755;48.116;11.608;2023-11-21T12:03:03;2.95;;;1.50;;
11398;SDS011;5755;48.116;11.608;2023-11-21T12:05:32;1.40;;;1.20;;
11398;SDS011;5755;48.116;11.608;2023-11-21T12:08:01;3.30;;;1.08;;
11398;SDS011;5755;48.116;11.608;2023-11-21T12:10:30;2.20;;;1.27;;
11398;SDS011;5755;48.116;11.608;2023-11-21T12:13:00;1.63;;;1.20;;
11398;SDS011;5755;48.116;11.608;2023-11-21T12:15:27;2.20;;;1.33;;
11398;SDS011;5755;48.116;11.608;2023-11-21T12:17:56;1.38;;;1.23;;
11398;SDS011;5755;48.116;11.608;2023-11-21T12:20:26;2.10;;;1.30;;
11398;SDS011;5755;48.116;11.608;2023-11-21T12:23:14;1.42;;;1.20;;
11398;SDS011;5755;48.116;11.608;2023-11-21T12:25:42;2.17;;;1.23;;
11398;SDS011;5755;48.116;11.608;2023-11-21T12:28:10;2.85;;;1.50;;
11398;SDS011;5755;48.116;11.608;2023-11-21T12:30:39;1.52;;;1.23;;
11398;SDS011;5755;48.116;11.608;2023-11-21T12:33:06;1.73;;;1.35;;
11398;SDS011;5755;48.116;11.608;2023-11-21T12:35:34;1.45;;;1.10;;
11398;SDS011;5755;48.116;11.608;2023-11-21T12:38:03;1.77;;;1.15;;
11398;SDS011;5755;48.116;11.608;2023-11-21T12:40:31;1.35;;;1.23;;
11398;SDS011;5755;48.116;11.608;2023-11-21T12:42:58;2.60;;;1.60;;
11398;SDS011;5755;48.116;11.608;2023-11-21T12:45:27;3.38;;;1.35;;
11398;SDS011;5755;48.116;11.608;2023-11-21T12:47:56;3.03;;;1.00;;
11398;SDS011;5755;48.116;11.608;2023-11-21T12:50:32;2.17;;;1.10;;
11398;SDS011;5755;48.116;11.608;2023-11-21T12:53:02;0.93;;;0.93;;
11398;SDS011;5755;48.116;11.608;2023-11-21T12:55:31;1.65;;;1.27;;
11398;SDS011;5755;48.116;11.608;2023-11-21T12:58:03;1.88;;;1.25;;
11398;SDS011;5755;48.116;11.608;2023-11-21T13:00:42;1.27;;;1.17;;
11398;SDS011;5755;48.116;11.608;2023-11-21T13:03:13;2.85;;;1.08;;
11398;SDS011;5755;48.116;11.608;2023-11-21T13:05:43;2.17;;;1.17;;
11398;SDS011;5755;48.116;11.608;2023-11-21T13:08:12;1.23;;;0.93;;
11398;SDS011;5755;48.116;11.608;2023-11-21T13:10:44;0.95;;;0.80;;
11398;SDS011;5755;48.116;11.608;2023-11-21T13:13:12;1.25;;;0.70;;
11398;SDS011;5755;48.116;11.608;2023-11-21T13:15:48;1.45;;;0.80;;
11398;SDS011;5755;48.116;11.608;2023-11-21T13:18:20;1.60;;;0.90;;
11398;SDS011;5755;48.116;11.608;2023-11-21T13:20:48;1.83;;;0.90;;
11398;SDS011;5755;48.116;11.608;2023-11-21T13:23:16;1.92;;;1.05;;
11398;SDS011;5755;48.116;11.608;2023-11-21T13:25:43;2.15;;;1.10;;
11398;SDS011;5755;48.116;11.608;2023-11-21T13:28:10;2.85;;;1.00;;
11398;SDS011;5755;48.116;11.608;2023-11-21T13:30:38;0.93;;;0.88;;
11398;SDS011;5755;48.116;11.608;2023-11-21T13:33:07;1.08;;;0.98;;
11398;SDS011;5755;48.116;11.608;2023-11-21T13:35:50;1.48;;;0.85;;
11398;SDS011;5755;48.116;11.608;2023-11-21T13:38:18;1.38;;;1.00;;
11398;SDS011;5755;48.116;11.608;2023-11-21T13:40:50;2.30;;;0.98;;
11398;SDS011;5755;48.116;11.608;2023-11-21T13:43:32;3.13;;;1.33;;
11398;SDS011;5755;48.116;11.608;2023-11-21T13:45:59;1.98;;;1.20;;
11398;SDS011;5755;48.116;11.608;2023-11-21T13:48:33;2.50;;;1.25;;
11398;SDS011;5755;48.116;11.608;2023-11-21T13:51:14;2.30;;;1.30;;
11398;SDS011;5755;48.116;11.608;2023-11-21T13:53:42;3.65;;;1.38;;
11398;SDS011;5755;48.116;11.608;2023-11-21T13:56:10;4.32;;;1.35;;
11398;SDS011;5755;48.116;11.608;2023-11-21T13:58:41;1.88;;;1.00;;
11398;SDS011;5755;48.116;11.608;2023-11-21T14:01:15;2.55;;;1.38;;
11398;SDS011;5755;48.116;11.608;2023-11-21T14:04:09;1.98;;;1.35;;
11398;SDS011;5755;48.116;11.608;2023-11-21T14:06:45;2.03;;;1.20;;
11398;SDS011;5755;48.116;11.608;2023-11-21T14:09:20;1.95;;;1.27;;
11398;SDS011;5755;48.116;11.608;2023-11-21T14:11:50;4.45;;;1.70;;
11398;SDS011;5755;48.116;11.608;2023-11-21T14:14:18;5.57;;;1.98;;
11398;SDS011;5755;48.116;11.608;2023-11-21T14:16:47;1.63;;;1.10;;
11398;SDS011;5755;48.116;11.608;2023-11-21T14:19:17;1.70;;;1.38;;
11398;SDS011;5755;48.116;11.608;2023-11-21T14:21:52;1.20;;;0.90;;
11398;SDS011;5755;48.116;11.608;2023-11-21T14:24:19;1.23;;;1.13;;
11398;SDS011;5755;48.116;11.608;2023-11-21T14:26:49;1.38;;;1.10;;
11398;SDS011;5755;48.116;11.608;2023-11-21T14:29:17;1.27;;;1.00;;
11398;SDS011;5755;48.116;11.608;2023-11-21T14:31:48;1.15;;;0.93;;
11398;SDS011;5755;48.116;11.608;2023-11-21T14:34:18;1.25;;;1.15;;
11398;SDS011;5755;48.116;11.608;2023-11-21T14:36:44;1.70;;;1.10;;
11398;SDS011;5755;48.116;11.608;2023-11-21T14:39:11;1.98;;;1.10;;
11398;SDS011;5755;48.116;11.608;2023-11-21T14:41:48;4.63;;;1.00;;
11398;SDS011;5755;48.116;11.608;2023-11-21T14:44:15;2.67;;;1.10;;
11398;SDS011;5755;48.116;11.608;2023-11-21T14:46:42;1.15;;;1.05;;
11398;SDS011;5755;48.116;11.608;2023-11-21T14:49:11;1.05;;;0.95;;
11398;SDS011;5755;48.116;11.608;2023-11-21T14:51:46;1.20;;;1.00;;
11398;SDS011;5755;48.116;11.608;2023-11-21T14:54:25;1.65;;;1.20;;
11398;SDS011;5755;48.116;11.608;2023-11-21T14:57:05;0.95;;;0.95;;
11398;SDS011;5755;48.116;11.608;2023-11-21T14:59:36;2.08;;;1.30;;
11398;SDS011;5755;48.116;11.608;2023-11-21T15:02:03;4.25;;;1.30;;
11398;SDS011;5755;48.116;11.608;2023-11-21T15:04:41;2.40;;;1.27;;
11398;SDS011;5755;48.116;11.608;2023-11-21T15:07:09;3.92;;;1.30;;
11398;SDS011;5755;48.116;11.608;2023-11-21T15:09:50;3.28;;;1.23;;
11398;SDS011;5755;48.116;11.608;2023-11-21T15:12:18;3.90;;;2.85;;
11398;SDS011;5755;48.116;11.608;2023-11-21T15:14:47;1.30;;;1.20;;
11398;SDS011;5755;48.116;11.608;2023-11-21T15:17:19;1.30;;;1.20;;
11398;SDS011;5755;48.116;11.608;2023-11-21T15:19:50;5.55;;;1.42;;